createdAt,value
2023-05-09T00:01:35.468Z,98819.08
2023-05-09T00:04:01.879Z,98818.21
2023-05-09T00:06:31.268Z,98816.29
2023-05-09T00:08:57.594Z,98813.63
2023-05-09T00:11:24.565Z,98812.52
2023-05-09T00:13:51.083Z,98809.63
2023-05-09T00:16:17.697Z,98808.44
2023-05-09T00:18:44.036Z,98808.47
2023-05-09T00:21:10.563Z,98809.19
2023-05-09T00:23:37.654Z,98806.02
2023-05-09T00:26:06.798Z,98802.96
2023-05-09T00:28:33.109Z,98799.27
2023-05-09T00:30:59.465Z,98797.66
2023-05-09T00:33:25.975Z,98797.36
2023-05-09T00:35:53.467Z,98798.75
2023-05-09T00:38:20.168Z,98796.05
2023-05-09T00:40:46.587Z,98796.09
2023-05-09T00:43:15.251Z,98792.01
2023-05-09T00:45:42.266Z,98790.72
2023-05-09T00:48:11.855Z,98787.02
2023-05-09T00:50:38.141Z,98786.77
2023-05-09T00:53:04.925Z,98787.91
2023-05-09T00:55:34.434Z,98786.08
2023-05-09T00:58:02.118Z,98781.30
2023-05-09T01:00:28.720Z,98781.15
2023-05-09T01:02:55.894Z,98781.16
2023-05-09T01:05:28.927Z,98780.86
2023-05-09T01:07:55.291Z,98778.70
2023-05-09T01:10:38.860Z,98778.05
2023-05-09T01:13:09.691Z,98775.35
2023-05-09T01:15:38.962Z,98774.02
2023-05-09T01:18:16.782Z,98772.36
2023-05-09T01:20:45.982Z,98770.86
2023-05-09T01:23:15.453Z,98773.47
2023-05-09T01:26:13.793Z,98773.98
2023-05-09T01:28:40.137Z,98775.02
2023-05-09T01:31:08.121Z,98772.29
2023-05-09T01:33:37.717Z,98770.96
2023-05-09T01:36:07.237Z,98770.29
2023-05-09T01:38:37.011Z,98770.31
2023-05-09T01:41:05.045Z,98772.73
2023-05-09T01:43:32.659Z,98771.73
2023-05-09T01:45:59.109Z,98770.06
2023-05-09T01:48:39.332Z,98768.23
2023-05-09T01:51:06.322Z,98770.33
2023-05-09T01:53:33.735Z,98771.06
2023-05-09T01:56:02.557Z,98768.71
2023-05-09T01:58:37.574Z,98767.21
2023-05-09T02:01:09.776Z,98766.09
2023-05-09T02:03:43.882Z,98760.52
2023-05-09T02:06:21.498Z,98756.98
2023-05-09T02:08:49.005Z,98756.85
2023-05-09T02:11:16.047Z,98756.36
2023-05-09T02:13:42.510Z,98750.27
2023-05-09T02:16:09.516Z,98745.21
2023-05-09T02:18:36.128Z,98744.77
2023-05-09T02:21:02.816Z,98742.20
2023-05-09T02:23:29.731Z,98736.75
2023-05-09T02:25:56.293Z,98734.36
2023-05-09T02:28:24.806Z,98735.56
2023-05-09T02:30:52.518Z,98737.54
2023-05-09T02:33:19.072Z,98738.67
2023-05-09T02:35:46.027Z,98739.41
2023-05-09T02:38:13.039Z,98737.06
2023-05-09T02:40:41.605Z,98743.42
2023-05-09T02:43:08.006Z,98746.23
2023-05-09T02:45:36.780Z,98745.39
2023-05-09T02:48:03.609Z,98742.65
2023-05-09T02:50:31.009Z,98739.08
2023-05-09T02:52:57.371Z,98743.67
2023-05-09T02:55:24.006Z,98744.70
2023-05-09T02:57:56.253Z,98746.26
2023-05-09T03:00:30.986Z,98743.04
2023-05-09T03:02:57.606Z,98744.75
2023-05-09T03:05:24.028Z,98741.85
2023-05-09T03:07:50.344Z,98743.38
2023-05-09T03:10:16.987Z,98744.38
2023-05-09T03:12:43.599Z,98741.11
2023-05-09T03:15:12.771Z,98741.39
2023-05-09T03:17:39.904Z,98740.81
2023-05-09T03:20:08.801Z,98738.92
2023-05-09T03:22:35.398Z,98735.83
2023-05-09T03:25:03.067Z,98739.52
2023-05-09T03:27:29.459Z,98736.34
2023-05-09T03:29:56.110Z,98738.83
2023-05-09T03:32:22.585Z,98739.95
2023-05-09T03:34:49.243Z,98742.91
2023-05-09T03:37:16.077Z,98746.91
2023-05-09T03:39:42.812Z,98744.71
2023-05-09T03:42:09.252Z,98740.26
2023-05-09T03:44:36.035Z,98739.34
2023-05-09T03:47:02.424Z,98742.15
2023-05-09T03:49:33.630Z,98743.10
2023-05-09T03:52:00.205Z,98742.54
2023-05-09T03:54:27.018Z,98740.73
2023-05-09T03:56:53.361Z,98744.08
2023-05-09T03:59:19.810Z,98742.58
2023-05-09T04:01:46.334Z,98742.28
2023-05-09T04:04:12.958Z,98739.27
2023-05-09T04:06:39.518Z,98739.69
2023-05-09T04:09:06.954Z,98739.12
2023-05-09T04:11:34.050Z,98740.75
2023-05-09T04:14:01.049Z,98737.86
2023-05-09T04:16:32.831Z,98737.73
2023-05-09T04:18:59.392Z,98736.10
2023-05-09T04:21:25.770Z,98738.34
2023-05-09T04:23:53.832Z,98738.86
2023-05-09T04:26:25.452Z,98735.15
2023-05-09T04:28:53.271Z,98736.62
2023-05-09T04:31:20.120Z,98742.02
2023-05-09T04:33:49.153Z,98741.66
2023-05-09T04:36:15.630Z,98746.14
2023-05-09T04:38:42.241Z,98746.23
2023-05-09T04:41:11.534Z,98746.25
2023-05-09T04:43:40.477Z,98742.47
2023-05-09T04:46:07.159Z,98738.88
2023-05-09T04:48:34.291Z,98738.93
2023-05-09T04:51:01.267Z,98737.79
2023-05-09T04:53:28.208Z,98736.80
2023-05-09T04:55:54.991Z,98740.54
2023-05-09T04:58:24.683Z,98741.78
2023-05-09T05:00:51.151Z,98739.45
2023-05-09T05:03:17.864Z,98738.47
2023-05-09T05:05:44.646Z,98734.40
2023-05-09T05:08:20.373Z,98731.63
2023-05-09T05:10:47.462Z,98731.67
2023-05-09T05:13:15.346Z,98730.72
2023-05-09T05:15:43.603Z,98725.22
2023-05-09T05:18:10.404Z,98728.98
2023-05-09T05:20:39.336Z,98724.20
2023-05-09T05:23:05.766Z,98724.68
2023-05-09T05:25:32.226Z,98721.43
2023-05-09T05:28:14.059Z,98721.86
2023-05-09T05:30:43.570Z,98720.30
2023-05-09T05:33:11.072Z,98719.52
2023-05-09T05:35:38.332Z,98719.88
2023-05-09T05:38:08.093Z,98720.17
2023-05-09T05:40:34.794Z,98721.84
2023-05-09T05:43:02.799Z,98720.64
2023-05-09T05:45:30.322Z,98720.61
2023-05-09T05:47:57.221Z,98721.53
2023-05-09T05:50:30.127Z,98722.81
2023-05-09T05:52:57.186Z,98718.48
2023-05-09T05:55:23.681Z,98717.49
2023-05-09T05:57:50.751Z,98714.74
2023-05-09T06:00:17.323Z,98714.14
2023-05-09T06:02:46.102Z,98710.20
2023-05-09T06:05:19.029Z,98708.61
2023-05-09T06:07:45.456Z,98711.65
2023-05-09T06:10:11.972Z,98709.89
2023-05-09T06:12:38.464Z,98713.27
2023-05-09T06:15:06.212Z,98714.34
2023-05-09T06:17:34.805Z,98710.15
2023-05-09T06:20:01.318Z,98705.97
2023-05-09T06:22:27.876Z,98703.02
2023-05-09T06:24:54.215Z,98695.48
2023-05-09T06:27:20.664Z,98694.71
2023-05-09T06:29:47.224Z,98694.14
2023-05-09T06:32:13.714Z,98691.64
2023-05-09T06:34:40.274Z,98693.89
2023-05-09T06:37:06.673Z,98694.20
2023-05-09T06:39:33.223Z,98692.95
2023-05-09T06:41:59.736Z,98692.27
2023-05-09T06:44:30.619Z,98688.95
2023-05-09T06:46:57.003Z,98689.20
2023-05-09T06:49:23.509Z,98686.71
2023-05-09T06:51:49.927Z,98687.17
2023-05-09T06:54:16.302Z,98683.19
2023-05-09T06:56:42.833Z,98682.91
2023-05-09T06:59:09.313Z,98683.39
2023-05-09T07:01:35.840Z,98685.13
2023-05-09T07:04:02.312Z,98685.55
2023-05-09T07:06:28.809Z,98688.43
2023-05-09T07:08:55.249Z,98686.11
2023-05-09T07:11:24.966Z,98687.17
2023-05-09T07:13:51.353Z,98687.29
2023-05-09T07:16:17.732Z,98683.16
2023-05-09T07:18:44.251Z,98677.41
2023-05-09T07:21:10.573Z,98670.19
2023-05-09T07:23:37.129Z,98671.02
2023-05-09T07:26:03.478Z,98670.35
2023-05-09T07:28:30.031Z,98662.60
2023-05-09T07:30:56.663Z,98662.23
2023-05-09T07:33:23.080Z,98654.86
2023-05-09T07:35:49.626Z,98654.45
2023-05-09T07:38:16.185Z,98651.80
2023-05-09T07:40:42.567Z,98652.85
2023-05-09T07:43:08.848Z,98649.96
2023-05-09T07:45:35.219Z,98651.41
2023-05-09T07:48:04.502Z,98650.98
2023-05-09T07:50:31.007Z,98653.21
2023-05-09T07:52:57.417Z,98648.86
2023-05-09T07:55:23.834Z,98649.83
2023-05-09T07:57:50.168Z,98643.05
2023-05-09T08:00:16.610Z,98635.48
2023-05-09T08:02:43.116Z,98634.17
2023-05-09T08:05:09.543Z,98628.20
2023-05-09T08:07:36.118Z,98627.77
2023-05-09T08:10:03.494Z,98625.65
2023-05-09T08:12:29.841Z,98627.48
2023-05-09T08:14:56.182Z,98623.09
2023-05-09T08:17:22.685Z,98621.77
2023-05-09T08:19:49.049Z,98619.15
2023-05-09T08:22:15.968Z,98623.80
2023-05-09T08:24:42.321Z,98627.01
2023-05-09T08:27:08.948Z,98628.67
2023-05-09T08:29:35.293Z,98623.18
2023-05-09T08:32:01.640Z,98619.29
2023-05-09T08:34:28.045Z,98623.41
2023-05-09T08:36:54.371Z,98621.71
2023-05-09T08:39:20.996Z,98619.25
2023-05-09T08:41:47.633Z,98617.27
2023-05-09T08:44:14.016Z,98613.07
2023-05-09T08:46:42.395Z,98610.55
2023-05-09T08:49:09.166Z,98615.29
2023-05-09T08:51:35.970Z,98614.98
2023-05-09T08:54:05.091Z,98614.48
2023-05-09T08:56:31.414Z,98616.02
2023-05-09T08:58:57.949Z,98617.73
2023-05-09T09:01:24.756Z,98613.46
2023-05-09T09:03:51.331Z,98614.17
2023-05-09T09:06:20.737Z,98614.20
2023-05-09T09:08:47.282Z,98608.64
2023-05-09T09:11:14.260Z,98604.95
2023-05-09T09:13:41.530Z,98607.11
2023-05-09T09:16:10.008Z,98609.98
2023-05-09T09:18:37.083Z,98602.58
2023-05-09T09:21:09.410Z,98597.35
2023-05-09T09:23:48.129Z,98596.54
2023-05-09T09:26:22.256Z,98602.13
2023-05-09T09:28:48.780Z,98602.38
2023-05-09T09:31:21.381Z,98606.13
2023-05-09T09:33:48.276Z,98610.20
2023-05-09T09:36:14.932Z,98608.66
2023-05-09T09:38:41.791Z,98604.70
2023-05-09T09:41:15.841Z,98597.21
2023-05-09T09:43:44.776Z,98596.83
2023-05-09T09:46:14.326Z,98595.25
2023-05-09T09:48:45.461Z,98592.33
2023-05-09T09:51:12.021Z,98589.16
2023-05-09T09:53:41.383Z,98582.52
2023-05-09T09:56:08.275Z,98585.83
2023-05-09T09:58:34.865Z,98580.38
2023-05-09T10:01:04.543Z,98579.02
2023-05-09T10:03:43.845Z,98576.58
2023-05-09T10:06:11.262Z,98572.80
2023-05-09T10:08:37.982Z,98574.38
2023-05-09T10:11:04.395Z,98574.68
2023-05-09T10:13:34.039Z,98569.40
2023-05-09T10:16:01.275Z,98564.05
2023-05-09T10:18:31.853Z,98566.23
2023-05-09T10:20:59.059Z,98561.13
2023-05-09T10:23:28.693Z,98554.85
2023-05-09T10:26:04.686Z,98550.73
2023-05-09T10:28:32.606Z,98553.44
2023-05-09T10:31:05.434Z,98546.41
2023-05-09T10:33:36.442Z,98536.64
2023-05-09T10:36:03.348Z,98533.73
2023-05-09T10:38:30.289Z,98535.29
2023-05-09T10:40:57.381Z,98533.27
2023-05-09T10:43:23.826Z,98535.42
2023-05-09T10:45:50.810Z,98534.52
2023-05-09T10:48:17.369Z,98533.06
2023-05-09T10:50:44.500Z,98529.45
2023-05-09T10:53:11.263Z,98526.30
2023-05-09T10:55:48.236Z,98528.95
2023-05-09T10:58:18.941Z,98522.23
2023-05-09T11:00:49.300Z,98515.61
2023-05-09T11:03:15.821Z,98507.27
2023-05-09T11:05:55.714Z,98506.41
2023-05-09T11:08:25.355Z,98508.55
2023-05-09T11:10:56.135Z,98514.13
2023-05-09T11:13:24.041Z,98503.86
2023-05-09T11:16:02.862Z,98506.57
2023-05-09T11:18:30.031Z,98502.48
2023-05-09T11:20:56.770Z,98493.06
2023-05-09T11:23:29.932Z,98493.09
2023-05-09T11:26:08.820Z,98485.45
2023-05-09T11:28:36.539Z,98486.71
2023-05-09T11:31:09.223Z,98482.13
2023-05-09T11:33:36.439Z,98478.27
2023-05-09T11:36:29.311Z,98476.27
2023-05-09T11:39:06.162Z,98468.94
2023-05-09T11:41:39.944Z,98469.09
2023-05-09T11:44:35.972Z,98472.00
2023-05-09T11:47:03.544Z,98466.15
2023-05-09T11:49:30.001Z,98458.52
2023-05-09T11:51:58.850Z,98464.04
2023-05-09T11:54:25.462Z,98464.88
2023-05-09T11:56:52.116Z,98455.59
2023-05-09T11:59:21.310Z,98448.89
2023-05-09T12:01:47.697Z,98452.61
2023-05-09T12:04:19.114Z,98449.16
2023-05-09T12:06:48.770Z,98450.41
2023-05-09T12:09:17.396Z,98451.48
2023-05-09T12:11:50.412Z,98449.69
2023-05-09T12:14:26.964Z,98442.92
2023-05-09T12:16:53.754Z,98430.59
2023-05-09T12:19:20.357Z,98424.89
2023-05-09T12:21:46.704Z,98421.69
2023-05-09T12:24:13.016Z,98424.02
2023-05-09T12:26:39.458Z,98425.58
2023-05-09T12:29:06.093Z,98414.69
2023-05-09T12:31:32.998Z,98420.72
2023-05-09T12:34:01.595Z,98431.06
2023-05-09T12:36:33.927Z,98425.75
2023-05-09T12:39:08.381Z,98417.45
2023-05-09T12:41:39.482Z,98411.20
2023-05-09T12:44:20.613Z,98412.21
2023-05-09T12:46:57.575Z,98414.61
2023-05-09T12:49:26.973Z,98411.81
2023-05-09T12:52:00.281Z,98410.20
2023-05-09T12:54:28.328Z,98395.27
2023-05-09T12:56:58.391Z,98400.33
2023-05-09T12:59:25.720Z,98408.37
2023-05-09T13:01:53.084Z,98404.06
2023-05-09T13:04:23.114Z,98393.12
2023-05-09T13:06:55.899Z,98385.70
2023-05-09T13:09:23.175Z,98394.83
2023-05-09T13:12:03.645Z,98392.75
2023-05-09T13:14:30.158Z,98391.40
2023-05-09T13:16:56.677Z,98386.40
2023-05-09T13:19:23.044Z,98389.52
2023-05-09T13:21:53.945Z,98385.24
2023-05-09T13:24:20.538Z,98379.31
2023-05-09T13:26:46.923Z,98371.80
2023-05-09T13:29:33.590Z,98366.02
2023-05-09T13:32:02.576Z,98364.23
2023-05-09T13:34:38.913Z,98361.52
2023-05-09T13:37:07.808Z,98359.32
2023-05-09T13:39:36.653Z,98358.66
2023-05-09T13:42:03.214Z,98365.56
2023-05-09T13:44:35.374Z,98360.84
2023-05-09T13:47:01.880Z,98360.90
2023-05-09T13:49:30.876Z,98359.91
2023-05-09T13:51:57.228Z,98357.31
2023-05-09T13:54:23.862Z,98352.38
2023-05-09T13:56:52.784Z,98351.24
2023-05-09T13:59:19.170Z,98349.38
2023-05-09T14:01:45.614Z,98345.19
2023-05-09T14:04:12.051Z,98336.91
2023-05-09T14:06:38.546Z,98335.33
2023-05-09T14:09:04.855Z,98329.66
2023-05-09T14:11:34.036Z,98335.69
2023-05-09T14:14:00.663Z,98339.39
2023-05-09T14:16:27.117Z,98339.03
2023-05-09T14:18:53.459Z,98336.35
2023-05-09T14:21:19.826Z,98333.18
2023-05-09T14:23:46.151Z,98333.52
2023-05-09T14:26:12.473Z,98326.77
2023-05-09T14:28:41.488Z,98323.18
2023-05-09T14:31:08.000Z,98321.70
2023-05-09T14:33:34.321Z,98320.88
2023-05-09T14:36:01.494Z,98316.26
2023-05-09T14:38:28.157Z,98324.09
2023-05-09T14:40:57.554Z,98322.46
2023-05-09T14:43:26.677Z,98318.71
2023-05-09T14:45:53.424Z,98314.74
2023-05-09T14:48:19.836Z,98314.58
2023-05-09T14:50:46.210Z,98311.30
2023-05-09T14:53:12.900Z,98310.28
2023-05-09T14:55:42.343Z,98315.80
2023-05-09T14:58:11.003Z,98313.68
2023-05-09T15:00:40.541Z,98310.17
2023-05-09T15:03:10.110Z,98300.48
2023-05-09T15:05:36.556Z,98298.30
2023-05-09T15:08:03.021Z,98293.17
2023-05-09T15:10:29.417Z,98286.02
2023-05-09T15:13:00.677Z,98283.50
2023-05-09T15:15:27.185Z,98278.29
2023-05-09T15:17:53.832Z,98277.27
2023-05-09T15:20:20.305Z,98278.42
2023-05-09T15:22:47.584Z,98275.39
2023-05-09T15:25:14.259Z,98274.85
2023-05-09T15:27:43.714Z,98269.54
2023-05-09T15:30:13.106Z,98267.80
2023-05-09T15:32:42.443Z,98262.80
2023-05-09T15:35:09.308Z,98258.77
2023-05-09T15:37:35.918Z,98255.34
2023-05-09T15:40:02.370Z,98245.05
2023-05-09T15:42:29.049Z,98243.10
2023-05-09T15:44:55.523Z,98248.23
2023-05-09T15:47:21.914Z,98242.86
2023-05-09T15:49:55.567Z,98241.63
2023-05-09T15:52:21.962Z,98241.09
2023-05-09T15:54:48.312Z,98235.43
2023-05-09T15:57:22.083Z,98231.50
2023-05-09T15:59:51.936Z,98232.95
2023-05-09T16:02:18.323Z,98226.90
2023-05-09T16:04:44.930Z,98226.71
2023-05-09T16:07:11.406Z,98225.48
2023-05-09T16:09:37.774Z,98222.88
2023-05-09T16:12:04.337Z,98225.20
2023-05-09T16:14:30.909Z,98223.80
2023-05-09T16:16:57.365Z,98224.20
2023-05-09T16:19:26.403Z,98220.63
2023-05-09T16:21:52.912Z,98214.98
2023-05-09T16:24:19.379Z,98212.04
2023-05-09T16:26:48.720Z,98214.09
2023-05-09T16:29:15.306Z,98209.95
2023-05-09T16:31:46.986Z,98208.54
2023-05-09T16:34:16.268Z,98205.95
2023-05-09T16:36:42.774Z,98205.08
2023-05-09T16:39:09.153Z,98199.36
2023-05-09T16:41:35.645Z,98195.70
2023-05-09T16:44:02.035Z,98193.04
2023-05-09T16:46:28.436Z,98193.55
2023-05-09T16:48:55.062Z,98187.43
2023-05-09T16:51:21.540Z,98188.53
2023-05-09T16:53:48.033Z,98189.65
2023-05-09T16:56:14.649Z,98187.19
2023-05-09T16:58:43.951Z,98183.11
2023-05-09T17:01:12.941Z,98183.52
2023-05-09T17:03:41.512Z,98183.37
2023-05-09T17:06:11.079Z,98183.27
2023-05-09T17:08:37.552Z,98184.80
2023-05-09T17:11:04.635Z,98180.21
2023-05-09T17:13:31.223Z,98180.95
2023-05-09T17:15:57.992Z,98182.56
2023-05-09T17:18:36.094Z,98175.45
2023-05-09T17:21:04.685Z,98176.28
2023-05-09T17:23:31.228Z,98174.70
2023-05-09T17:25:57.863Z,98171.38
2023-05-09T17:28:27.121Z,98171.98
2023-05-09T17:30:53.864Z,98172.96
2023-05-09T17:33:23.021Z,98171.16
2023-05-09T17:35:49.580Z,98169.88
2023-05-09T17:38:16.565Z,98173.98
2023-05-09T17:40:43.567Z,98173.56
2023-05-09T17:43:10.259Z,98176.81
2023-05-09T17:45:37.104Z,98179.90
2023-05-09T17:48:03.510Z,98177.27
2023-05-09T17:50:39.368Z,98177.89
2023-05-09T17:53:05.716Z,98171.77
2023-05-09T17:55:34.950Z,98173.91
2023-05-09T17:58:02.087Z,98172.16
2023-05-09T18:00:28.635Z,98175.02
2023-05-09T18:02:56.719Z,98176.41
2023-05-09T18:05:24.171Z,98176.19
2023-05-09T18:07:52.423Z,98175.05
2023-05-09T18:10:19.340Z,98173.95
2023-05-09T18:12:46.058Z,98170.00
2023-05-09T18:15:13.006Z,98169.20
2023-05-09T18:17:40.048Z,98166.80
2023-05-09T18:20:07.637Z,98166.03
2023-05-09T18:22:34.368Z,98166.80
2023-05-09T18:25:00.976Z,98164.41
2023-05-09T18:27:27.534Z,98163.20
2023-05-09T18:29:54.043Z,98165.07
2023-05-09T18:32:20.432Z,98166.27
2023-05-09T18:34:46.768Z,98168.50
2023-05-09T18:37:13.235Z,98170.42
2023-05-09T18:39:39.680Z,98173.42
2023-05-09T18:42:07.668Z,98176.39
2023-05-09T18:44:35.427Z,98172.66
2023-05-09T18:47:02.225Z,98173.34
2023-05-09T18:49:31.686Z,98175.02
2023-05-09T18:52:01.871Z,98176.98
2023-05-09T18:54:29.250Z,98177.29
2023-05-09T18:56:56.506Z,98182.56
2023-05-09T18:59:23.925Z,98185.63
2023-05-09T19:01:50.535Z,98183.06
2023-05-09T19:04:17.040Z,98182.94
2023-05-09T19:06:43.816Z,98184.02
2023-05-09T19:09:10.184Z,98185.36
2023-05-09T19:11:36.823Z,98182.86
2023-05-09T19:14:03.280Z,98177.29
2023-05-09T19:16:29.807Z,98178.63
2023-05-09T19:18:57.226Z,98174.55
2023-05-09T19:21:23.876Z,98175.94
2023-05-09T19:23:50.365Z,98172.63
2023-05-09T19:26:17.557Z,98171.70
2023-05-09T19:28:44.898Z,98172.75
2023-05-09T19:31:11.577Z,98175.08
2023-05-09T19:33:38.287Z,98176.62
2023-05-09T19:36:04.911Z,98173.61
2023-05-09T19:38:31.455Z,98171.41
2023-05-09T19:40:57.931Z,98171.47
2023-05-09T19:43:24.673Z,98169.77
2023-05-09T19:45:59.208Z,98170.02
2023-05-09T19:48:25.738Z,98167.23
2023-05-09T19:50:55.221Z,98167.69
2023-05-09T19:53:23.184Z,98162.77
2023-05-09T19:55:50.096Z,98159.73
2023-05-09T19:58:17.714Z,98159.27
2023-05-09T20:00:45.171Z,98159.34
2023-05-09T20:03:11.857Z,98158.26
2023-05-09T20:05:57.333Z,98159.94
2023-05-09T20:08:24.111Z,98159.92
2023-05-09T20:10:50.670Z,98158.98
2023-05-09T20:13:17.328Z,98158.23
2023-05-09T20:15:44.119Z,98156.88
2023-05-09T20:18:10.709Z,98155.99
2023-05-09T20:20:37.315Z,98160.67
2023-05-09T20:23:03.869Z,98157.10
2023-05-09T20:25:30.877Z,98158.31
2023-05-09T20:27:57.496Z,98156.56
2023-05-09T20:30:24.217Z,98156.90
2023-05-09T20:32:50.853Z,98154.00
2023-05-09T20:35:17.401Z,98155.11
2023-05-09T20:37:44.133Z,98156.13
2023-05-09T20:40:10.640Z,98151.52
2023-05-09T20:42:37.272Z,98155.77
2023-05-09T20:45:03.964Z,98153.39
2023-05-09T20:47:33.471Z,98152.85
2023-05-09T20:50:00.033Z,98152.09
2023-05-09T20:52:26.469Z,98150.50
2023-05-09T20:54:52.976Z,98148.14
2023-05-09T20:57:19.368Z,98149.27
2023-05-09T20:59:45.826Z,98148.48
2023-05-09T21:02:12.296Z,98145.96
2023-05-09T21:04:38.855Z,98145.89
2023-05-09T21:07:05.377Z,98144.95
2023-05-09T21:09:31.748Z,98148.55
2023-05-09T21:11:58.117Z,98147.14
2023-05-09T21:14:24.692Z,98144.36
2023-05-09T21:16:59.082Z,98141.81
2023-05-09T21:19:25.472Z,98138.55
2023-05-09T21:21:51.947Z,98134.77
2023-05-09T21:24:18.656Z,98131.83
2023-05-09T21:26:47.782Z,98131.48
2023-05-09T21:29:14.520Z,98132.41
2023-05-09T21:31:41.091Z,98130.86
2023-05-09T21:34:07.522Z,98130.89
2023-05-09T21:36:35.094Z,98129.52
2023-05-09T21:39:01.481Z,98129.30
2023-05-09T21:41:28.075Z,98128.38
2023-05-09T21:43:54.552Z,98128.85
2023-05-09T21:46:21.159Z,98129.75
2023-05-09T21:48:47.709Z,98128.58
2023-05-09T21:51:14.044Z,98130.18
2023-05-09T21:53:43.141Z,98127.15
2023-05-09T21:56:09.504Z,98127.48
2023-05-09T21:58:35.990Z,98126.23
2023-05-09T22:01:02.709Z,98126.52
2023-05-09T22:03:29.377Z,98130.64
2023-05-09T22:05:55.727Z,98131.97
2023-05-09T22:08:22.425Z,98129.97
2023-05-09T22:10:48.726Z,98131.87
2023-05-09T22:13:15.149Z,98129.75
2023-05-09T22:15:41.721Z,98131.03
2023-05-09T22:18:08.350Z,98126.64
2023-05-09T22:20:34.847Z,98126.02
2023-05-09T22:23:01.294Z,98121.32
2023-05-09T22:25:27.729Z,98119.15
2023-05-09T22:27:54.730Z,98114.13
2023-05-09T22:30:21.050Z,98115.34
2023-05-09T22:32:47.448Z,98115.51
2023-05-09T22:35:13.746Z,98117.52
2023-05-09T22:37:40.030Z,98114.73
2023-05-09T22:40:06.654Z,98113.70
2023-05-09T22:42:32.994Z,98106.52
2023-05-09T22:44:59.511Z,98103.79
2023-05-09T22:47:25.842Z,98105.38
2023-05-09T22:49:52.405Z,98104.96
2023-05-09T22:52:18.721Z,98098.36
2023-05-09T22:54:45.030Z,98099.67
2023-05-09T22:57:11.681Z,98100.77
2023-05-09T22:59:38.095Z,98101.70
2023-05-09T23:02:04.414Z,98099.89
2023-05-09T23:04:30.779Z,98101.24
2023-05-09T23:06:57.072Z,98099.34
2023-05-09T23:09:23.359Z,98096.73
2023-05-09T23:11:50.013Z,98096.89
2023-05-09T23:14:16.305Z,98094.34
2023-05-09T23:16:42.600Z,98091.42
2023-05-09T23:19:09.183Z,98090.70
2023-05-09T23:21:35.494Z,98089.42
2023-05-09T23:24:01.844Z,98086.21
2023-05-09T23:26:28.210Z,98087.34
2023-05-09T23:28:54.548Z,98090.20
2023-05-09T23:31:20.900Z,98088.72
2023-05-09T23:33:47.207Z,98086.02
2023-05-09T23:36:13.580Z,98083.34
2023-05-09T23:38:39.854Z,98080.13
2023-05-09T23:41:06.179Z,98082.55
2023-05-09T23:43:32.483Z,98076.48
2023-05-09T23:45:58.823Z,98072.64
2023-05-09T23:48:25.139Z,98074.03
2023-05-09T23:50:51.575Z,98070.48
2023-05-09T23:53:20.319Z,98073.63
2023-05-09T23:55:46.608Z,98071.97
2023-05-09T23:58:12.875Z,98067.38
